createdAt,value
2024-03-10T00:09:14.627Z,76.72
2024-03-10T00:19:14.759Z,77.48
2024-03-10T00:29:14.857Z,77.31
2024-03-10T00:39:14.995Z,75.70
2024-03-10T00:49:15.403Z,73.19
2024-03-10T00:59:15.401Z,73.95
2024-03-10T01:09:15.605Z,75.56
2024-03-10T01:19:15.749Z,75.35
2024-03-10T01:29:15.852Z,72.65
2024-03-10T01:39:16.201Z,73.44
2024-03-10T01:49:16.112Z,72.81
2024-03-10T01:59:16.486Z,72.41
2024-03-10T02:09:16.686Z,60.05
2024-03-10T02:19:17.955Z,55.41
2024-03-10T02:29:17.833Z,58.81
2024-03-10T02:39:17.278Z,64.67
2024-03-10T02:49:17.187Z,66.41
2024-03-10T02:59:17.777Z,53.82
2024-03-10T03:09:17.451Z,61.44
2024-03-10T03:19:18.006Z,63.56
2024-03-10T03:29:17.999Z,65.86
2024-03-10T03:39:17.967Z,65.55
2024-03-10T03:49:18.058Z,65.95
2024-03-10T03:59:18.562Z,67.22
2024-03-10T04:09:18.792Z,68.93
2024-03-10T04:19:18.782Z,66.12
2024-03-10T04:29:19.169Z,67.71
2024-03-10T04:39:19.070Z,67.87
2024-03-10T04:49:19.360Z,66.99
2024-03-10T04:59:19.781Z,67.02
2024-03-10T05:09:19.872Z,66.47
2024-03-10T05:19:20.548Z,64.25
2024-03-10T05:29:21.026Z,66.61
2024-03-10T05:39:20.142Z,67.80
2024-03-10T05:49:20.338Z,64.69
2024-03-10T05:59:20.386Z,68.08
2024-03-10T06:09:20.592Z,68.83
2024-03-10T06:19:20.878Z,66.16
2024-03-10T06:29:21.184Z,62.75
2024-03-10T06:39:21.325Z,62.11
2024-03-10T06:49:21.507Z,62.39
2024-03-10T06:59:21.713Z,60.00
2024-03-10T07:09:21.642Z,59.66
2024-03-10T07:19:21.942Z,61.02
2024-03-10T07:29:21.827Z,63.21
2024-03-10T07:39:22.183Z,61.10
2024-03-10T07:49:22.146Z,58.66
2024-03-10T07:59:22.479Z,58.70
2024-03-10T08:09:22.417Z,58.07
2024-03-10T08:19:22.672Z,57.29
2024-03-10T08:29:22.998Z,58.22
2024-03-10T08:39:22.945Z,58.21
2024-03-10T08:49:23.223Z,55.87
2024-03-10T08:59:23.112Z,56.55
2024-03-10T09:09:23.474Z,55.97
2024-03-10T09:19:23.421Z,54.33
2024-03-10T09:29:23.733Z,54.36
2024-03-10T09:39:23.757Z,54.00
2024-03-10T09:49:23.954Z,52.38
2024-03-10T09:59:24.279Z,57.00
2024-03-10T10:09:24.197Z,54.74
2024-03-10T10:19:24.472Z,55.20
2024-03-10T10:29:24.856Z,54.69
2024-03-10T10:39:24.725Z,54.03
2024-03-10T10:49:25.036Z,55.73
2024-03-10T10:59:24.917Z,54.08
2024-03-10T11:09:25.034Z,54.69
2024-03-10T11:19:25.532Z,55.40
2024-03-10T11:29:25.583Z,54.24
2024-03-10T11:39:25.789Z,55.45
2024-03-10T11:49:25.753Z,54.92
2024-03-10T11:59:26.068Z,55.04
2024-03-10T12:09:26.095Z,55.83
2024-03-10T12:19:29.038Z,56.31
2024-03-10T12:29:26.580Z,58.83
2024-03-10T12:39:26.832Z,60.56
2024-03-10T12:49:26.820Z,59.62
2024-03-10T12:59:27.113Z,57.88
2024-03-10T13:09:27.365Z,58.54
2024-03-10T13:19:27.336Z,59.82
2024-03-10T13:29:27.693Z,60.46
2024-03-10T13:39:27.964Z,61.30
2024-03-10T13:49:27.878Z,61.13
2024-03-10T13:59:28.273Z,62.78
2024-03-10T14:09:28.423Z,65.86
2024-03-10T14:19:28.392Z,63.09
2024-03-10T14:29:28.755Z,63.29
2024-03-10T14:39:28.639Z,67.05
2024-03-10T14:49:28.926Z,67.59
2024-03-10T14:59:29.416Z,68.26
2024-03-10T15:09:29.467Z,69.08
2024-03-10T15:19:29.431Z,68.67
2024-03-10T15:29:29.789Z,68.77
2024-03-10T15:39:30.058Z,69.18
2024-03-10T15:49:30.661Z,68.30
2024-03-10T15:59:29.960Z,69.93
2024-03-10T16:09:30.212Z,69.79
2024-03-10T16:19:30.207Z,72.48
2024-03-10T16:29:30.493Z,74.90
2024-03-10T16:39:30.436Z,75.65
2024-03-10T16:49:30.702Z,76.20
2024-03-10T16:59:31.097Z,77.67
2024-03-10T17:09:30.951Z,78.02
2024-03-10T17:19:31.240Z,78.12
2024-03-10T17:29:31.298Z,78.46
2024-03-10T17:39:31.487Z,78.32
2024-03-10T17:49:31.754Z,78.97
2024-03-10T17:59:31.766Z,79.18
2024-03-10T18:09:32.031Z,80.00
2024-03-10T18:19:32.287Z,79.63
2024-03-10T18:29:32.322Z,81.68
2024-03-10T18:39:32.543Z,85.21
2024-03-10T18:49:32.524Z,92.63
2024-03-10T18:59:32.871Z,96.21
2024-03-10T19:09:33.067Z,98.47
2024-03-10T19:19:33.112Z,99.99
2024-03-10T19:29:33.133Z,99.99
2024-03-10T19:39:33.358Z,98.61
2024-03-10T19:49:33.572Z,97.63
2024-03-10T19:59:34.086Z,96.70
2024-03-10T20:09:33.717Z,96.95
2024-03-10T20:19:33.960Z,97.26
2024-03-10T20:29:34.454Z,99.26
2024-03-10T20:39:34.345Z,99.99
2024-03-10T20:49:34.630Z,99.99
2024-03-10T20:59:34.997Z,99.99
2024-03-10T21:09:34.889Z,99.99
2024-03-10T21:19:35.145Z,99.99
2024-03-10T21:29:35.511Z,99.99
2024-03-10T21:39:35.415Z,99.99
2024-03-10T21:49:35.688Z,99.99
2024-03-10T21:59:36.201Z,99.99
2024-03-10T22:09:35.912Z,99.47
2024-03-10T22:19:36.234Z,93.30
2024-03-10T22:29:36.556Z,92.78
2024-03-10T22:39:36.497Z,94.32
2024-03-10T22:49:36.737Z,93.56
2024-03-10T22:59:37.065Z,93.25
2024-03-10T23:09:37.332Z,92.22
2024-03-10T23:19:37.329Z,92.74
2024-03-10T23:29:37.598Z,92.18
2024-03-10T23:39:37.500Z,91.97
2024-03-10T23:49:37.784Z,91.56
2024-03-10T23:59:38.178Z,91.66
